createdAt,value
2017-08-11T00:01:50.049Z,12.50
2017-08-11T00:04:17.691Z,12.50
2017-08-11T00:06:45.337Z,12.50
2017-08-11T00:09:13.031Z,12.60
2017-08-11T00:11:40.675Z,12.50
2017-08-11T00:14:08.476Z,12.50
2017-08-11T00:16:36.161Z,12.50
2017-08-11T00:19:03.802Z,12.50
2017-08-11T00:21:31.518Z,12.40
2017-08-11T00:23:59.265Z,12.40
2017-08-11T00:26:27.011Z,12.40
2017-08-11T00:28:54.660Z,12.40
2017-08-11T00:31:22.354Z,12.30
2017-08-11T00:33:49.993Z,12.30
2017-08-11T00:36:17.692Z,12.30
2017-08-11T00:38:45.384Z,12.20
2017-08-11T00:41:13.016Z,12.20
2017-08-11T00:43:40.657Z,12.20
2017-08-11T00:46:08.741Z,12.20
2017-08-11T00:48:36.372Z,12.20
2017-08-11T00:51:04.006Z,12.20
2017-08-11T00:53:31.720Z,12.10
2017-08-11T00:55:59.350Z,12.10
2017-08-11T00:58:26.985Z,12.10
2017-08-11T01:00:54.670Z,12.10
2017-08-11T01:03:22.335Z,12.10
2017-08-11T01:05:49.974Z,12.10
2017-08-11T01:08:18.100Z,12.00
2017-08-11T01:10:45.851Z,12.00
2017-08-11T01:13:13.478Z,12.00
2017-08-11T01:15:41.165Z,12.00
2017-08-11T01:18:09.292Z,11.80
2017-08-11T01:20:36.945Z,11.80
2017-08-11T01:23:04.870Z,11.70
2017-08-11T01:25:32.514Z,11.60
2017-08-11T01:28:00.152Z,11.60
2017-08-11T01:30:27.858Z,11.60
2017-08-11T01:32:56.191Z,11.50
2017-08-11T01:35:23.851Z,11.50
2017-08-11T01:37:52.308Z,11.40
2017-08-11T01:40:19.946Z,11.50
2017-08-11T01:42:47.692Z,11.50
2017-08-11T01:45:15.436Z,11.50
2017-08-11T01:47:43.098Z,11.50
2017-08-11T01:50:11.186Z,11.50
2017-08-11T01:52:38.985Z,11.50
2017-08-11T01:55:06.732Z,11.50
2017-08-11T01:57:34.385Z,11.60
2017-08-11T02:00:02.098Z,11.60
2017-08-11T02:02:29.773Z,11.60
2017-08-11T02:04:57.519Z,11.60
2017-08-11T02:07:25.368Z,11.60
2017-08-11T02:09:53.016Z,11.70
2017-08-11T02:12:20.761Z,11.70
2017-08-11T02:14:48.509Z,11.70
2017-08-11T02:17:16.153Z,11.70
2017-08-11T02:19:43.796Z,11.70
2017-08-11T02:22:11.486Z,11.70
2017-08-11T02:24:39.207Z,11.70
2017-08-11T02:27:06.878Z,11.70
2017-08-11T02:29:34.590Z,11.80
2017-08-11T02:32:02.228Z,11.80
2017-08-11T02:34:29.875Z,11.80
2017-08-11T02:36:57.575Z,11.80
2017-08-11T02:39:25.265Z,11.80
2017-08-11T02:41:52.908Z,11.90
2017-08-11T02:44:20.603Z,11.90
2017-08-11T02:46:48.238Z,11.90
2017-08-11T02:49:15.946Z,11.90
2017-08-11T02:51:43.694Z,11.90
2017-08-11T02:54:11.334Z,11.90
2017-08-11T02:56:38.982Z,11.80
2017-08-11T02:59:06.670Z,11.80
2017-08-11T03:01:34.337Z,11.80
2017-08-11T03:04:02.026Z,11.90
2017-08-11T03:06:29.769Z,11.80
2017-08-11T03:08:57.403Z,11.70
2017-08-11T03:11:25.042Z,11.80
2017-08-11T03:13:52.742Z,11.80
2017-08-11T03:16:20.814Z,11.70
2017-08-11T03:18:48.454Z,11.70
2017-08-11T03:21:16.155Z,11.70
2017-08-11T03:23:43.786Z,11.70
2017-08-11T03:26:11.415Z,11.70
2017-08-11T03:28:39.186Z,11.70
2017-08-11T03:31:07.241Z,11.70
2017-08-11T03:33:34.987Z,11.70
2017-08-11T03:36:02.669Z,11.70
2017-08-11T03:38:30.311Z,11.70
2017-08-11T03:40:58.337Z,11.80
2017-08-11T03:43:26.031Z,11.70
2017-08-11T03:45:53.670Z,11.80
2017-08-11T03:48:21.372Z,11.70
2017-08-11T03:50:49.120Z,11.60
2017-08-11T03:53:16.761Z,11.60
2017-08-11T03:55:44.410Z,11.60
2017-08-11T03:58:12.257Z,11.60
2017-08-11T04:00:39.934Z,11.60
2017-08-11T04:03:07.576Z,11.60
2017-08-11T04:05:35.703Z,11.70
2017-08-11T04:08:03.355Z,11.70
2017-08-11T04:10:31.034Z,11.70
2017-08-11T04:12:58.742Z,11.70
2017-08-11T04:15:26.379Z,11.70
2017-08-11T04:17:54.005Z,11.70
2017-08-11T04:20:21.690Z,11.70
2017-08-11T04:22:49.326Z,11.70
2017-08-11T04:25:16.956Z,11.70
2017-08-11T04:27:44.647Z,11.80
2017-08-11T04:30:12.303Z,11.80
2017-08-11T04:32:39.970Z,11.70
2017-08-11T04:35:07.668Z,11.80
2017-08-11T04:37:35.322Z,11.80
2017-08-11T04:40:03.400Z,11.70
2017-08-11T04:42:31.126Z,11.70
2017-08-11T04:44:59.159Z,11.60
2017-08-11T04:47:26.795Z,11.60
2017-08-11T04:49:54.566Z,11.60
2017-08-11T04:52:22.598Z,11.60
2017-08-11T04:54:50.234Z,11.60
2017-08-11T04:57:17.918Z,11.60
2017-08-11T04:59:45.636Z,11.60
2017-08-11T05:02:13.278Z,11.60
2017-08-11T05:04:40.969Z,11.60
2017-08-11T05:07:08.610Z,11.60
2017-08-11T05:09:36.258Z,11.70
2017-08-11T05:12:03.949Z,11.70
2017-08-11T05:14:31.635Z,11.70
2017-08-11T05:16:59.278Z,11.70
2017-08-11T05:19:27.410Z,11.70
2017-08-11T05:21:55.058Z,11.70
2017-08-11T05:24:22.702Z,11.70
2017-08-11T05:26:50.421Z,11.60
2017-08-11T05:29:18.073Z,11.50
2017-08-11T05:31:45.714Z,11.40
2017-08-11T05:34:13.420Z,11.30
2017-08-11T05:36:41.070Z,11.30
2017-08-11T05:39:09.283Z,11.30
2017-08-11T05:41:37.032Z,11.40
2017-08-11T05:44:04.694Z,11.40
2017-08-11T05:46:32.331Z,11.40
2017-08-11T05:49:00.025Z,11.40
2017-08-11T05:51:27.696Z,11.40
2017-08-11T05:53:55.338Z,11.50
2017-08-11T05:56:23.026Z,11.50
2017-08-11T05:58:51.056Z,11.50
2017-08-11T06:01:18.681Z,11.50
2017-08-11T06:03:46.450Z,11.50
2017-08-11T06:06:14.091Z,11.50
2017-08-11T06:08:41.734Z,11.60
2017-08-11T06:11:09.451Z,11.50
2017-08-11T06:13:37.119Z,11.60
2017-08-11T06:16:04.748Z,11.60
2017-08-11T06:18:32.461Z,11.60
2017-08-11T06:21:00.170Z,11.60
2017-08-11T06:23:27.796Z,11.60
2017-08-11T06:25:55.504Z,11.70
2017-08-11T06:28:23.143Z,11.80
2017-08-11T06:30:50.955Z,11.90
2017-08-11T06:33:18.652Z,11.90
2017-08-11T06:35:46.346Z,11.90
2017-08-11T06:38:13.984Z,11.90
2017-08-11T06:40:41.679Z,11.90
2017-08-11T06:43:09.690Z,11.80
2017-08-11T06:45:37.326Z,11.80
2017-08-11T06:48:05.030Z,11.80
2017-08-11T06:50:32.657Z,11.90
2017-08-11T06:53:00.691Z,11.90
2017-08-11T06:55:28.428Z,11.90
2017-08-11T06:57:56.179Z,11.80
2017-08-11T07:00:23.814Z,11.80
2017-08-11T07:02:51.501Z,11.80
2017-08-11T07:05:19.151Z,11.90
2017-08-11T07:07:46.803Z,11.90
2017-08-11T07:10:14.527Z,11.90
2017-08-11T07:12:42.562Z,11.80
2017-08-11T07:15:10.202Z,11.80
2017-08-11T07:17:37.950Z,11.80
2017-08-11T07:20:05.595Z,11.90
2017-08-11T07:22:33.235Z,11.90
2017-08-11T07:25:00.946Z,12.00
2017-08-11T07:27:29.043Z,12.00
2017-08-11T07:29:56.692Z,12.00
2017-08-11T07:32:24.378Z,12.00
2017-08-11T07:34:52.019Z,12.10
2017-08-11T07:37:19.670Z,12.10
2017-08-11T07:39:47.374Z,12.20
2017-08-11T07:42:15.030Z,12.20
2017-08-11T07:44:43.086Z,12.30
2017-08-11T07:47:11.258Z,12.30
2017-08-11T07:49:38.898Z,12.30
2017-08-11T07:52:07.024Z,12.20
2017-08-11T07:54:34.707Z,12.20
2017-08-11T07:57:02.420Z,12.10
2017-08-11T07:59:30.167Z,12.10
2017-08-11T08:01:57.858Z,12.10
2017-08-11T08:04:25.493Z,12.00
2017-08-11T08:06:53.141Z,12.00
2017-08-11T08:09:21.163Z,12.10
2017-08-11T08:11:48.810Z,12.00
2017-08-11T08:14:16.446Z,12.00
2017-08-11T08:16:44.131Z,12.10
2017-08-11T08:19:11.779Z,12.20
2017-08-11T08:21:39.428Z,12.40
2017-08-11T08:24:07.228Z,12.40
2017-08-11T08:26:34.875Z,12.40
2017-08-11T08:29:02.539Z,12.40
2017-08-11T08:31:30.630Z,12.40
2017-08-11T08:33:58.269Z,12.40
2017-08-11T08:36:25.910Z,12.40
2017-08-11T08:38:53.762Z,12.50
2017-08-11T08:41:21.454Z,12.50
2017-08-11T08:43:49.094Z,12.60
2017-08-11T08:46:16.853Z,12.60
2017-08-11T08:48:44.568Z,12.50
2017-08-11T08:51:12.214Z,12.50
2017-08-11T08:53:39.909Z,12.40
2017-08-11T08:56:08.046Z,12.40
2017-08-11T08:58:35.723Z,12.50
2017-08-11T09:01:03.810Z,12.40
2017-08-11T09:03:31.518Z,12.40
2017-08-11T09:05:59.653Z,12.30
2017-08-11T09:08:27.401Z,12.40
2017-08-11T09:10:55.147Z,12.40
2017-08-11T09:13:22.785Z,12.40
2017-08-11T09:15:50.492Z,12.50
2017-08-11T09:18:18.598Z,12.60
2017-08-11T09:20:46.248Z,12.60
2017-08-11T09:23:13.941Z,12.70
2017-08-11T09:25:53.554Z,12.70
2017-08-11T09:28:33.348Z,12.70
2017-08-11T09:31:13.064Z,12.90
2017-08-11T09:33:52.688Z,12.90
2017-08-11T09:36:32.059Z,12.90
2017-08-11T09:38:59.856Z,12.90
2017-08-11T09:41:27.502Z,13.00
2017-08-11T09:43:55.249Z,13.10
2017-08-11T09:46:22.985Z,13.10
2017-08-11T09:48:50.639Z,13.00
2017-08-11T09:51:18.386Z,13.10
2017-08-11T09:53:46.134Z,13.00
2017-08-11T09:56:13.881Z,13.10
2017-08-11T09:58:41.518Z,13.10
2017-08-11T10:01:09.219Z,13.10
2017-08-11T10:03:36.918Z,13.20
2017-08-11T10:06:04.881Z,13.20
2017-08-11T10:08:33.014Z,13.20
2017-08-11T10:11:00.846Z,13.20
2017-08-11T10:13:28.628Z,13.10
2017-08-11T10:15:56.373Z,13.00
2017-08-11T10:18:24.018Z,13.00
2017-08-11T10:20:51.662Z,12.90
2017-08-11T10:23:19.346Z,12.90
2017-08-11T10:25:46.998Z,12.90
2017-08-11T10:28:14.763Z,13.00
2017-08-11T10:30:42.466Z,13.00
2017-08-11T10:33:10.505Z,13.10
2017-08-11T10:35:38.150Z,13.10
2017-08-11T10:38:05.835Z,13.10
2017-08-11T10:40:33.474Z,13.10
2017-08-11T10:43:01.187Z,13.20
2017-08-11T10:45:28.883Z,13.20
2017-08-11T10:47:56.526Z,13.20
2017-08-11T10:50:24.221Z,13.20
2017-08-11T10:52:51.912Z,13.20
2017-08-11T10:55:19.562Z,13.10
2017-08-11T10:57:47.258Z,13.10
2017-08-11T11:00:14.961Z,13.00
2017-08-11T11:02:42.649Z,12.90
2017-08-11T11:05:10.302Z,13.10
2017-08-11T11:07:37.986Z,13.10
2017-08-11T11:10:05.635Z,13.20
2017-08-11T11:12:33.274Z,13.20
2017-08-11T11:15:00.968Z,13.20
2017-08-11T11:17:28.613Z,13.20
2017-08-11T11:19:56.369Z,13.20
2017-08-11T11:22:24.062Z,13.10
2017-08-11T11:24:51.712Z,13.10
2017-08-11T11:27:19.351Z,13.10
2017-08-11T11:29:47.066Z,13.20
2017-08-11T11:32:14.770Z,13.20
2017-08-11T11:34:42.443Z,13.20
2017-08-11T11:37:10.190Z,13.30
2017-08-11T11:39:37.831Z,13.30
2017-08-11T11:42:05.545Z,13.40
2017-08-11T11:44:33.333Z,13.50
2017-08-11T11:47:01.014Z,13.50
2017-08-11T11:49:28.724Z,13.40
2017-08-11T11:51:56.422Z,13.40
2017-08-11T11:54:24.078Z,13.40
2017-08-11T11:56:51.719Z,13.50
2017-08-11T11:59:19.414Z,13.60
2017-08-11T12:01:47.064Z,13.60
2017-08-11T12:04:14.735Z,13.40
2017-08-11T12:06:43.082Z,13.30
2017-08-11T12:09:10.739Z,13.30
2017-08-11T12:11:38.382Z,13.20
2017-08-11T12:14:06.111Z,13.10
2017-08-11T12:16:33.751Z,13.10
2017-08-11T12:19:01.488Z,13.10
2017-08-11T12:21:29.197Z,13.10
2017-08-11T12:23:56.847Z,13.10
2017-08-11T12:26:24.498Z,13.10
2017-08-11T12:28:52.374Z,13.10
2017-08-11T12:31:20.021Z,13.10
2017-08-11T12:33:47.768Z,13.10
2017-08-11T12:36:15.458Z,13.00
2017-08-11T12:38:43.093Z,13.00
2017-08-11T12:41:10.742Z,13.00
2017-08-11T12:43:38.446Z,13.00
2017-08-11T12:46:06.085Z,13.10
2017-08-11T12:48:33.726Z,13.10
2017-08-11T12:51:01.498Z,13.10
2017-08-11T12:53:29.236Z,13.00
2017-08-11T12:55:56.882Z,13.10
2017-08-11T12:58:24.659Z,13.10
2017-08-11T13:00:52.783Z,13.10
2017-08-11T13:03:20.427Z,13.10
2017-08-11T13:05:48.151Z,13.20
2017-08-11T13:08:15.923Z,13.10
2017-08-11T13:10:43.668Z,13.10
2017-08-11T13:13:11.353Z,13.20
2017-08-11T13:15:39.048Z,13.20
2017-08-11T13:18:06.705Z,13.20
2017-08-11T13:20:34.393Z,13.30
2017-08-11T13:23:02.056Z,13.30
2017-08-11T13:25:29.745Z,13.40
2017-08-11T13:27:57.457Z,13.40
2017-08-11T13:30:25.097Z,13.40
2017-08-11T13:32:52.738Z,13.50
2017-08-11T13:35:20.442Z,13.50
2017-08-11T13:37:48.086Z,13.50
2017-08-11T13:40:15.820Z,13.50
2017-08-11T13:42:43.516Z,13.60
2017-08-11T13:45:11.209Z,13.50
2017-08-11T13:47:38.857Z,13.50
2017-08-11T13:50:06.602Z,13.40
2017-08-11T13:52:34.247Z,13.40
2017-08-11T13:55:01.997Z,13.50
2017-08-11T13:57:29.686Z,13.50
2017-08-11T13:59:57.366Z,13.60
2017-08-11T14:02:25.010Z,13.60
2017-08-11T14:04:52.780Z,13.70
2017-08-11T14:07:20.426Z,13.80
2017-08-11T14:09:48.058Z,13.80
2017-08-11T14:12:15.850Z,13.70
2017-08-11T14:14:44.417Z,13.70
2017-08-11T14:17:12.064Z,13.70
2017-08-11T14:19:39.826Z,13.70
2017-08-11T14:22:07.625Z,13.70
2017-08-11T14:24:40.866Z,13.70
2017-08-11T14:27:08.547Z,13.70
2017-08-11T14:29:36.293Z,13.70
2017-08-11T14:32:04.043Z,13.70
2017-08-11T14:34:31.683Z,13.80
2017-08-11T14:36:59.338Z,13.90
2017-08-11T14:39:27.042Z,14.10
2017-08-11T14:41:54.682Z,14.20
2017-08-11T14:44:22.338Z,14.30
2017-08-11T14:46:50.116Z,14.50
2017-08-11T14:49:17.762Z,14.60
2017-08-11T14:51:45.406Z,14.60
2017-08-11T14:54:13.154Z,14.60
2017-08-11T14:56:40.899Z,14.70
2017-08-11T14:59:08.646Z,14.70
2017-08-11T15:01:36.343Z,14.70
2017-08-11T15:04:04.042Z,14.70
2017-08-11T15:06:31.685Z,14.70
2017-08-11T15:08:59.433Z,14.60
2017-08-11T15:11:27.066Z,14.60
2017-08-11T15:13:54.798Z,14.70
2017-08-11T15:16:22.478Z,14.70
2017-08-11T15:18:50.106Z,14.70
2017-08-11T15:21:17.751Z,14.70
2017-08-11T15:23:45.699Z,14.70
2017-08-11T15:26:13.338Z,14.70
2017-08-11T15:28:40.985Z,14.70
2017-08-11T15:31:08.759Z,14.60
2017-08-11T15:33:36.419Z,14.60
2017-08-11T15:36:04.058Z,14.50
2017-08-11T15:38:31.750Z,14.50
2017-08-11T15:40:59.433Z,14.40
2017-08-11T15:43:27.178Z,14.40
2017-08-11T15:45:54.877Z,14.40
2017-08-11T15:48:22.528Z,14.50
2017-08-11T15:50:50.162Z,14.50
2017-08-11T15:53:17.860Z,14.60
2017-08-11T15:55:45.504Z,14.50
2017-08-11T15:58:13.139Z,14.50
2017-08-11T16:00:40.897Z,14.50
2017-08-11T16:03:08.647Z,14.40
2017-08-11T16:05:36.290Z,14.40
2017-08-11T16:08:03.986Z,14.40
2017-08-11T16:10:31.685Z,14.40
2017-08-11T16:12:59.431Z,14.40
2017-08-11T16:15:27.178Z,14.40
2017-08-11T16:17:54.815Z,14.50
2017-08-11T16:20:22.455Z,14.50
2017-08-11T16:22:50.131Z,14.50
2017-08-11T16:25:18.169Z,14.50
2017-08-11T16:27:45.815Z,14.50
2017-08-11T16:30:13.505Z,14.40
2017-08-11T16:32:41.134Z,14.40
2017-08-11T16:35:08.848Z,14.40
2017-08-11T16:37:36.534Z,14.40
2017-08-11T16:40:04.568Z,14.50
2017-08-11T16:42:32.297Z,14.50
2017-08-11T16:45:00.015Z,14.40
2017-08-11T16:47:27.699Z,14.40
2017-08-11T16:49:55.334Z,14.40
2017-08-11T16:52:23.034Z,14.40
2017-08-11T16:54:50.671Z,14.40
2017-08-11T16:57:18.317Z,14.40
2017-08-11T16:59:46.030Z,14.40
2017-08-11T17:02:13.661Z,14.40
2017-08-11T17:04:41.299Z,14.40
2017-08-11T17:07:09.155Z,14.40
2017-08-11T17:09:36.901Z,14.40
2017-08-11T17:12:04.551Z,14.40
2017-08-11T17:14:32.295Z,14.40
2017-08-11T17:16:59.939Z,14.40
2017-08-11T17:19:27.578Z,14.30
2017-08-11T17:21:55.333Z,14.30
2017-08-11T17:24:22.976Z,14.20
2017-08-11T17:26:50.625Z,14.20
2017-08-11T17:29:18.311Z,14.20
2017-08-11T17:31:45.957Z,14.10
2017-08-11T17:34:13.626Z,14.10
2017-08-11T17:36:41.315Z,14.00
2017-08-11T17:39:08.971Z,14.00
2017-08-11T17:41:36.695Z,13.90
2017-08-11T17:44:04.395Z,14.00
2017-08-11T17:46:32.067Z,14.00
2017-08-11T17:48:59.697Z,14.00
2017-08-11T17:51:27.483Z,14.00
2017-08-11T17:53:55.114Z,14.00
2017-08-11T17:56:22.975Z,14.00
2017-08-11T17:58:50.668Z,14.00
2017-08-11T18:01:18.302Z,14.00
2017-08-11T18:03:46.523Z,14.00
2017-08-11T18:06:14.292Z,14.00
2017-08-11T18:08:42.428Z,13.90
2017-08-11T18:11:10.069Z,13.90
2017-08-11T18:13:37.759Z,13.90
2017-08-11T18:16:05.520Z,13.90
2017-08-11T18:18:33.217Z,13.90
2017-08-11T18:21:00.912Z,13.90
2017-08-11T18:23:28.545Z,13.90
2017-08-11T18:25:56.194Z,13.90
2017-08-11T18:28:23.882Z,13.90
2017-08-11T18:30:51.545Z,13.90
2017-08-11T18:33:19.183Z,13.80
2017-08-11T18:35:46.934Z,13.80
2017-08-11T18:38:14.569Z,13.70
2017-08-11T18:40:42.203Z,13.70
2017-08-11T18:43:09.901Z,13.60
2017-08-11T18:45:38.942Z,13.60
2017-08-11T18:48:06.651Z,13.60
2017-08-11T18:50:34.554Z,13.50
2017-08-11T18:53:02.269Z,13.50
2017-08-11T18:55:29.930Z,13.40
2017-08-11T18:57:57.739Z,13.40
2017-08-11T19:00:25.505Z,13.30
2017-08-11T19:02:53.218Z,13.30
2017-08-11T19:05:20.932Z,13.20
2017-08-11T19:07:48.664Z,13.20
2017-08-11T19:10:16.434Z,13.20
2017-08-11T19:12:44.232Z,13.20
2017-08-11T19:15:12.130Z,13.20
2017-08-11T19:17:39.872Z,13.20
2017-08-11T19:20:07.680Z,13.20
2017-08-11T19:22:35.359Z,13.30
2017-08-11T19:25:03.008Z,13.30
2017-08-11T19:27:30.755Z,13.40
2017-08-11T19:29:58.501Z,13.40
2017-08-11T19:32:26.248Z,13.40
2017-08-11T19:34:53.952Z,13.30
2017-08-11T19:37:21.602Z,13.30
2017-08-11T19:39:49.284Z,13.30
2017-08-11T19:42:16.986Z,13.30
2017-08-11T19:44:44.629Z,13.30
2017-08-11T19:47:12.321Z,13.30
2017-08-11T19:49:40.016Z,13.30
2017-08-11T19:52:07.650Z,13.30
2017-08-11T19:54:35.357Z,13.30
2017-08-11T19:57:03.049Z,13.30
2017-08-11T19:59:30.754Z,13.30
2017-08-11T20:01:58.505Z,13.30
2017-08-11T20:04:26.294Z,13.30
2017-08-11T20:06:53.935Z,13.30
2017-08-11T20:09:21.583Z,13.30
2017-08-11T20:11:49.386Z,13.30
2017-08-11T20:14:17.037Z,13.30
2017-08-11T20:16:44.780Z,13.20
2017-08-11T20:19:12.498Z,13.20
2017-08-11T20:21:40.137Z,13.20
2017-08-11T20:24:07.786Z,13.10
2017-08-11T20:26:35.560Z,13.10
2017-08-11T20:29:03.209Z,13.10
2017-08-11T20:31:30.854Z,13.10
2017-08-11T20:33:58.541Z,13.10
2017-08-11T20:36:26.189Z,13.10
2017-08-11T20:38:53.869Z,13.10
2017-08-11T20:41:21.703Z,13.10
2017-08-11T20:43:49.384Z,13.10
2017-08-11T20:46:17.131Z,13.10
2017-08-11T20:48:44.900Z,13.10
2017-08-11T20:51:12.934Z,13.10
2017-08-11T20:53:40.584Z,13.10
2017-08-11T20:56:08.280Z,13.10
2017-08-11T20:58:35.968Z,13.10
2017-08-11T21:01:03.630Z,13.10
2017-08-11T21:03:31.338Z,13.10
2017-08-11T21:05:59.009Z,13.10
2017-08-11T21:08:26.642Z,13.10
2017-08-11T21:10:54.337Z,13.10
2017-08-11T21:13:22.044Z,13.10
2017-08-11T21:15:49.705Z,13.10
2017-08-11T21:18:17.437Z,13.10
2017-08-11T21:20:45.079Z,13.00
2017-08-11T21:23:12.722Z,13.00
2017-08-11T21:25:40.473Z,13.10
2017-08-11T21:28:08.221Z,13.10
2017-08-11T21:30:35.874Z,13.00
2017-08-11T21:33:03.574Z,13.10
2017-08-11T21:35:31.215Z,13.10
2017-08-11T21:37:58.852Z,13.10
2017-08-11T21:40:26.544Z,13.10
2017-08-11T21:42:54.297Z,13.00
2017-08-11T21:45:21.941Z,13.00
2017-08-11T21:47:49.629Z,13.00
2017-08-11T21:50:17.271Z,13.00
2017-08-11T21:52:44.916Z,13.10
2017-08-11T21:55:12.725Z,13.10
2017-08-11T21:57:40.369Z,13.10
2017-08-11T22:00:08.021Z,13.10
2017-08-11T22:02:35.806Z,13.10
2017-08-11T22:05:03.463Z,13.10
2017-08-11T22:07:31.155Z,13.10
2017-08-11T22:09:58.846Z,13.10
2017-08-11T22:12:26.547Z,13.00
2017-08-11T22:14:54.177Z,13.00
2017-08-11T22:17:21.939Z,12.90
2017-08-11T22:19:49.686Z,12.90
2017-08-11T22:22:17.331Z,12.90
2017-08-11T22:24:45.035Z,12.90
2017-08-11T22:27:12.679Z,12.90
2017-08-11T22:29:40.313Z,13.00
2017-08-11T22:32:08.114Z,12.90
2017-08-11T22:34:35.759Z,12.90
2017-08-11T22:37:03.399Z,12.90
2017-08-11T22:39:31.174Z,12.90
2017-08-11T22:41:59.618Z,12.90
2017-08-11T22:44:27.259Z,12.90
2017-08-11T22:46:54.962Z,12.90
2017-08-11T22:49:22.598Z,12.90
2017-08-11T22:51:50.504Z,12.90
2017-08-11T22:54:18.202Z,12.90
2017-08-11T22:56:45.896Z,12.90
2017-08-11T22:59:13.541Z,12.90
2017-08-11T23:01:41.230Z,12.80
2017-08-11T23:04:08.870Z,12.80
2017-08-11T23:06:36.579Z,12.80
2017-08-11T23:09:04.533Z,12.80
2017-08-11T23:11:32.183Z,12.80
2017-08-11T23:13:59.822Z,12.80
2017-08-11T23:16:27.512Z,12.80
2017-08-11T23:18:55.156Z,12.80
2017-08-11T23:21:22.819Z,12.80
2017-08-11T23:23:50.509Z,12.80
2017-08-11T23:26:18.143Z,12.70
2017-08-11T23:28:45.776Z,12.70
2017-08-11T23:31:13.542Z,12.70
2017-08-11T23:33:41.184Z,12.80
2017-08-11T23:36:08.830Z,12.80
2017-08-11T23:38:36.606Z,12.80
2017-08-11T23:41:04.641Z,12.80
2017-08-11T23:43:32.284Z,12.80
2017-08-11T23:45:59.994Z,12.80
2017-08-11T23:48:27.672Z,12.80
2017-08-11T23:50:55.314Z,12.80
2017-08-11T23:53:23.164Z,12.80
2017-08-11T23:55:51.127Z,12.80
2017-08-11T23:58:18.760Z,12.80
